Time;durP1;ratioP1;P1;durP2;ratioP2;P2;SDS_P1;SDS_P2;PMS_P1;PMS_P2;Temp;Humidity;BMP_temperature;BMP_pressure;BME280_temperature;BME280_humidity;BME280_pressure;Samples;Min_cycle;Max_cycle;Signal;HPM_P1;HPM_P2
2023/09/19 00:01:35;;;;;;;12.88;3.10;;;19.10;99.90;;;18.24;100.00;100005.94;4903145;29;20047;-75
2023/09/19 00:04:01;;;;;;;8.50;3.22;;;19.10;99.90;;;18.22;100.00;100005.25;4900294;29;20431;-75
2023/09/19 00:06:31;;;;;;;10.93;3.33;;;19.10;99.90;;;18.22;100.00;100002.56;4900703;29;20585;-75
2023/09/19 00:08:59;;;;;;;12.88;3.30;;;19.10;99.90;;;18.22;100.00;99997.25;4904756;29;20051;-76
2023/09/19 00:11:26;;;;;;;12.35;3.42;;;19.00;99.90;;;18.21;100.00;100000.91;4903561;29;20032;-75
2023/09/19 00:13:53;;;;;;;13.93;3.38;;;19.00;99.90;;;18.20;100.00;100001.88;4900801;29;20035;-76
2023/09/19 00:16:19;;;;;;;8.70;3.17;;;19.00;99.90;;;18.20;100.00;99998.38;4901692;29;20124;-75
2023/09/19 00:18:45;;;;;;;12.43;2.92;;;19.00;99.90;;;18.17;100.00;100002.16;4901616;29;20032;-76
2023/09/19 00:21:11;;;;;;;11.88;3.33;;;19.00;99.90;;;18.14;100.00;100002.44;4903788;29;20052;-75
2023/09/19 00:23:37;;;;;;;9.05;3.10;;;19.00;99.90;;;18.13;100.00;99999.91;4902684;29;20398;-75
2023/09/19 00:26:03;;;;;;;10.25;3.40;;;19.00;99.90;;;18.10;100.00;100001.03;4931718;29;20055;-75
2023/09/19 00:28:30;;;;;;;10.80;3.22;;;19.00;99.90;;;18.11;100.00;100002.72;4901636;29;20119;-76
2023/09/19 00:30:56;;;;;;;17.48;3.08;;;19.00;99.90;;;18.12;100.00;99999.09;4901369;29;20047;-76
2023/09/19 00:33:22;;;;;;;6.45;2.95;;;19.00;99.90;;;18.12;100.00;99998.22;4902027;29;20036;-76
2023/09/19 00:35:53;;;;;;;14.27;3.80;;;19.00;99.90;;;18.11;100.00;99996.53;4902365;29;20821;-75
2023/09/19 00:38:26;;;;;;;9.15;3.30;;;19.00;99.90;;;18.12;100.00;99995.56;4902929;29;20025;-75
2023/09/19 00:40:53;;;;;;;7.97;2.95;;;19.00;99.90;;;18.10;100.00;100005.50;4901243;29;20056;-76
2023/09/19 00:43:20;;;;;;;10.25;3.35;;;19.00;99.90;;;18.10;100.00;100001.03;4901209;29;20024;-75
2023/09/19 00:45:53;;;;;;;7.70;2.97;;;18.90;99.90;;;18.09;100.00;99993.19;4901530;29;20040;-75
2023/09/19 00:48:20;;;;;;;10.10;3.08;;;18.90;99.90;;;18.09;100.00;99995.84;4900396;29;20079;-75
2023/09/19 00:50:48;;;;;;;9.38;3.45;;;18.90;99.90;;;18.06;100.00;99996.97;4901581;29;20067;-76
2023/09/19 00:53:19;;;;;;;6.35;2.92;;;18.90;99.90;;;18.00;100.00;99992.19;4901307;29;20040;-76
2023/09/19 00:55:46;;;;;;;10.55;3.40;;;18.80;99.90;;;17.95;100.00;99991.75;4903457;29;20123;-76
2023/09/19 00:58:12;;;;;;;11.23;3.17;;;18.80;99.90;;;17.92;100.00;99998.19;4901907;29;20115;-76
2023/09/19 01:00:39;;;;;;;11.38;3.50;;;18.80;99.90;;;17.88;100.00;99987.94;4901894;29;20024;-75
2023/09/19 01:03:06;;;;;;;9.13;2.97;;;18.80;99.90;;;17.87;100.00;99983.59;4930913;29;21257;-76
2023/09/19 01:05:33;;;;;;;9.10;3.15;;;18.80;99.90;;;17.85;100.00;99989.06;4901556;29;20046;-76
2023/09/19 01:07:59;;;;;;;12.38;3.85;;;18.70;99.90;;;17.82;100.00;99987.53;4901132;29;20508;-76
2023/09/19 01:10:25;;;;;;;8.07;3.67;;;18.70;99.90;;;17.82;100.00;99992.00;4900099;29;20052;-76
2023/09/19 01:13:28;;;;;;;10.07;3.70;;;18.70;99.90;;;17.76;100.00;99988.03;4902059;29;20032;-76
2023/09/19 01:16:01;;;;;;;9.05;3.67;;;18.70;99.90;;;17.73;100.00;99998.09;4915631;29;20043;-76
2023/09/19 01:19:31;;;;;;;9.90;3.88;;;18.60;99.90;;;17.66;100.00;99995.13;4901069;29;20176;-75
2023/09/19 01:22:49;;;;;;;12.15;3.67;;;18.60;99.90;;;17.62;100.00;99991.91;4930408;29;20118;-76
2023/09/19 01:25:27;;;;;;;8.80;3.58;;;18.50;99.90;;;17.56;100.00;99986.28;4899911;29;20083;-76
2023/09/19 01:28:29;;;;;;;8.82;3.45;;;18.50;99.90;;;17.53;100.00;99982.06;4904369;29;20483;-76
2023/09/19 01:30:58;;;;;;;11.75;3.70;;;18.40;99.90;;;17.47;100.00;99985.25;4907151;29;20029;-76
2023/09/19 01:33:25;;;;;;;9.48;3.50;;;18.40;99.90;;;17.46;100.00;99978.25;4902554;29;20040;-76
2023/09/19 01:35:52;;;;;;;13.63;4.15;;;18.30;99.90;;;17.43;100.00;99989.19;4906780;29;20060;-76
2023/09/19 01:38:19;;;;;;;8.07;3.22;;;18.30;99.90;;;17.40;100.00;99990.25;4889331;29;20036;-75
2023/09/19 01:41:11;;;;;;;11.13;3.80;;;18.20;99.90;;;17.35;100.00;100003.13;4905340;29;20036;-77
2023/09/19 01:43:45;;;;;;;10.73;3.75;;;18.20;99.90;;;17.29;100.00;99998.34;4918721;29;20123;-76
2023/09/19 01:46:24;;;;;;;15.10;4.15;;;18.20;99.90;;;17.24;100.00;99997.91;4906386;29;20120;-76
2023/09/19 01:49:46;;;;;;;11.52;3.83;;;18.10;99.90;;;17.20;100.00;99996.47;4919219;29;20470;-76
2023/09/19 01:52:19;;;;;;;8.27;3.78;;;18.00;99.90;;;17.11;100.00;99992.78;4858511;29;20124;-75
2023/09/19 01:54:52;;;;;;;10.25;3.38;;;18.00;99.90;;;17.08;100.00;100005.50;4862395;29;20141;-76
2023/09/19 01:57:32;;;;;;;10.02;3.58;;;17.90;99.90;;;17.05;100.00;99997.78;4860963;29;20041;-75
2023/09/19 02:00:11;;;;;;;8.00;3.45;;;17.90;99.90;;;16.99;100.00;99989.34;4862742;29;20088;-75
2023/09/19 02:02:40;;;;;;;7.32;3.55;;;17.90;99.90;;;16.96;100.00;99994.94;4861316;29;20045;-75
2023/09/19 02:05:06;;;;;;;6.90;3.03;;;17.90;99.90;;;16.95;100.00;100003.03;4861736;29;20074;-76
2023/09/19 02:07:32;;;;;;;8.00;3.10;;;17.90;99.90;;;16.94;100.00;100007.53;4846922;29;20037;-76
2023/09/19 02:10:00;;;;;;;6.80;2.80;;;17.90;99.90;;;16.96;100.00;100010.91;4861269;29;20539;-77
2023/09/19 02:12:26;;;;;;;5.82;2.60;;;17.90;99.90;;;16.97;100.00;100009.91;4862400;29;20075;-76
2023/09/19 02:14:52;;;;;;;11.02;2.72;;;17.90;99.90;;;16.99;100.00;100010.63;4846669;29;20102;-77
2023/09/19 02:17:18;;;;;;;7.57;2.60;;;17.90;99.90;;;17.02;100.00;100005.06;4862814;29;20400;-77
2023/09/19 02:19:43;;;;;;;6.63;2.17;;;17.90;99.90;;;17.03;100.00;100003.25;4844563;29;20053;-76
2023/09/19 02:22:10;;;;;;;11.88;2.58;;;17.90;99.90;;;17.06;100.00;100004.78;4863257;29;20038;-75
2023/09/19 02:24:38;;;;;;;10.57;2.80;;;18.00;99.90;;;17.08;100.00;100013.47;4861983;29;20049;-77
2023/09/19 02:27:05;;;;;;;6.00;2.50;;;18.00;99.90;;;17.12;100.00;100013.09;4924940;29;20044;-76
2023/09/19 02:29:31;;;;;;;16.08;2.80;;;18.00;99.90;;;17.15;100.00;100007.53;4901292;29;20119;-76
2023/09/19 02:31:57;;;;;;;6.43;2.97;;;18.10;99.90;;;17.18;100.00;100007.25;4918520;29;20028;-76
2023/09/19 02:34:23;;;;;;;9.98;2.80;;;18.10;99.90;;;17.24;100.00;100013.88;4903272;29;20127;-76
2023/09/19 02:36:49;;;;;;;7.68;3.17;;;18.10;99.90;;;17.27;100.00;100012.75;4901400;29;20028;-76
2023/09/19 02:39:15;;;;;;;9.23;3.20;;;18.10;99.90;;;17.27;100.00;100010.94;4903184;29;20095;-76
2023/09/19 02:41:41;;;;;;;7.38;2.75;;;18.20;99.90;;;17.31;100.00;100011.53;4903682;29;20068;-76
2023/09/19 02:44:07;;;;;;;8.85;2.92;;;18.20;99.90;;;17.31;100.00;100017.69;4887139;29;20642;-75
2023/09/19 02:46:36;;;;;;;5.40;2.35;;;18.20;99.90;;;17.29;100.00;100014.31;4890137;29;20084;-76
2023/09/19 02:49:06;;;;;;;7.45;2.30;;;18.20;99.90;;;17.31;100.00;100015.00;4933055;29;20095;-75
2023/09/19 02:51:32;;;;;;;4.57;2.45;;;18.20;99.90;;;17.31;100.00;100011.53;4932816;29;20035;-76
2023/09/19 02:53:59;;;;;;;10.75;2.67;;;18.20;99.90;;;17.33;100.00;100018.38;4901917;29;20036;-75
2023/09/19 02:56:25;;;;;;;9.70;2.63;;;18.20;99.90;;;17.31;100.00;100012.34;4903765;29;20695;-76
2023/09/19 02:58:51;;;;;;;6.70;2.10;;;18.20;99.90;;;17.29;100.00;100006.31;4888253;29;20111;-76
2023/09/19 03:01:18;;;;;;;4.05;1.98;;;18.20;99.90;;;17.28;100.00;100007.31;4904624;29;20407;-76
2023/09/19 03:03:45;;;;;;;5.05;2.00;;;18.20;99.90;;;17.31;100.00;100012.34;4935298;29;20032;-76
2023/09/19 03:06:12;;;;;;;6.00;2.30;;;18.20;99.90;;;17.33;100.00;100015.72;4901170;29;20396;-76
2023/09/19 03:08:39;;;;;;;4.63;2.00;;;18.20;99.90;;;17.32;99.21;100026.50;4906943;29;20495;-76
2023/09/19 03:11:07;;;;;;;8.23;2.40;;;18.20;99.90;;;17.32;98.55;100016.72;4902608;29;20036;-76
2023/09/19 03:13:33;;;;;;;5.80;1.90;;;18.20;99.90;;;17.30;97.58;100013.34;4902279;29;20513;-76
2023/09/19 03:15:58;;;;;;;7.97;2.42;;;18.20;99.90;;;17.26;97.20;100017.25;4933266;29;20032;-76
2023/09/19 03:18:26;;;;;;;5.43;1.77;;;18.10;99.90;;;17.18;96.71;100017.88;4904054;29;20032;-76
2023/09/19 03:20:55;;;;;;;7.03;1.60;;;18.10;99.90;;;17.12;96.09;100029.03;4903556;29;20056;-76
2023/09/19 03:23:22;;;;;;;5.32;1.70;;;18.10;99.90;;;17.04;95.72;100034.19;4917544;29;20043;-76
2023/09/19 03:25:48;;;;;;;5.68;1.80;;;18.00;99.90;;;16.98;95.62;100042.69;4904342;29;20040;-76
2023/09/19 03:28:15;;;;;;;5.40;1.90;;;17.90;99.90;;;16.95;94.92;100030.50;4934897;29;20032;-76
2023/09/19 03:30:42;;;;;;;6.65;1.98;;;17.90;99.90;;;16.90;94.91;100034.50;4901946;29;20024;-76
2023/09/19 03:33:08;;;;;;;5.20;1.70;;;17.80;99.90;;;16.85;94.73;100039.38;4904003;29;20083;-76
2023/09/19 03:35:34;;;;;;;7.07;1.63;;;17.80;99.90;;;16.83;94.84;100031.53;4903890;29;20037;-76
2023/09/19 03:38:00;;;;;;;4.55;1.50;;;17.70;99.90;;;16.79;94.74;100046.00;4902888;29;20486;-75
2023/09/19 03:40:26;;;;;;;7.60;1.67;;;17.70;99.90;;;16.73;94.60;100041.19;4902077;29;20121;-76
2023/09/19 03:42:51;;;;;;;4.40;1.55;;;17.60;99.90;;;16.68;94.78;100035.44;4903536;29;20040;-76
2023/09/19 03:45:18;;;;;;;5.88;1.40;;;17.70;99.90;;;16.67;94.73;100041.69;4885717;29;20035;-76
2023/09/19 03:47:46;;;;;;;8.13;1.67;;;17.60;99.90;;;16.64;94.63;100041.97;4901773;29;20414;-76
2023/09/19 03:50:15;;;;;;;8.25;1.80;;;17.60;99.90;;;16.58;94.95;100044.16;4904019;29;20032;-75
2023/09/19 03:52:40;;;;;;;10.23;2.15;;;17.50;99.90;;;16.52;95.24;100044.69;4903677;29;20060;-76
2023/09/19 03:55:07;;;;;;;5.85;1.50;;;17.50;99.90;;;16.50;94.96;100051.94;4885583;29;20687;-76
2023/09/19 03:57:32;;;;;;;8.30;1.70;;;17.50;99.90;;;16.47;94.96;100056.63;4885883;29;20025;-75
2023/09/19 03:59:58;;;;;;;8.48;1.98;;;17.40;99.90;;;16.45;95.45;100061.22;4932463;29;20066;-76
2023/09/19 04:02:24;;;;;;;9.55;1.90;;;17.40;99.90;;;16.40;95.44;100058.97;4887364;29;20395;-77
2023/09/19 04:04:53;;;;;;;5.95;1.60;;;17.40;99.90;;;16.39;95.55;100065.22;4902176;29;20518;-76
2023/09/19 04:07:22;;;;;;;4.60;1.40;;;17.40;99.90;;;16.37;95.46;100069.81;4902863;29;20083;-76
2023/09/19 04:09:49;;;;;;;8.77;1.90;;;17.30;99.90;;;16.37;95.90;100073.34;4902773;29;20036;-75
2023/09/19 04:12:16;;;;;;;5.90;1.90;;;17.30;99.90;;;16.36;96.04;100070.81;4918238;29;20053;-76
2023/09/19 04:14:42;;;;;;;6.80;1.85;;;17.30;99.90;;;16.35;95.72;100069.13;4901851;29;20080;-76
2023/09/19 04:17:09;;;;;;;9.25;1.73;;;17.30;99.90;;;16.31;95.94;100073.84;4904373;29;20502;-75
2023/09/19 04:19:35;;;;;;;5.07;1.50;;;17.30;99.90;;;16.27;95.96;100080.34;4885847;29;20040;-76
2023/09/19 04:22:01;;;;;;;2.85;1.45;;;17.30;99.90;;;16.24;95.93;100082.41;4901949;29;20047;-76
2023/09/19 04:24:26;;;;;;;6.78;2.10;;;17.20;99.90;;;16.20;96.38;100077.34;4932952;29;20419;-75
2023/09/19 04:26:52;;;;;;;9.23;2.35;;;17.20;99.90;;;16.18;96.65;100076.63;4886788;29;20040;-75
2023/09/19 04:29:19;;;;;;;6.97;1.60;;;17.20;99.90;;;16.15;96.74;100074.19;4887081;29;20411;-75
2023/09/19 04:31:45;;;;;;;12.95;1.70;;;17.10;99.90;;;16.14;96.84;100077.84;4902108;29;20080;-77
2023/09/19 04:34:17;;;;;;;8.55;1.90;;;17.10;99.90;;;16.15;96.77;100079.53;4902510;29;20376;-75
2023/09/19 04:36:43;;;;;;;6.75;2.13;;;17.10;99.90;;;16.09;96.84;100080.03;4900746;29;20029;-76
2023/09/19 04:39:10;;;;;;;7.20;1.63;;;17.00;99.90;;;16.05;96.44;100081.25;4901621;29;20028;-75
2023/09/19 04:41:41;;;;;;;5.80;1.80;;;17.00;99.90;;;16.02;96.97;100080.63;4900874;29;20036;-76
2023/09/19 04:44:07;;;;;;;4.65;1.58;;;17.00;99.90;;;15.96;97.68;100082.81;4900693;29;20028;-76
2023/09/19 04:46:35;;;;;;;4.43;1.70;;;17.00;99.90;;;15.94;97.36;100094.53;4903881;29;20043;-76
2023/09/19 04:49:00;;;;;;;8.05;1.70;;;16.90;99.90;;;15.91;97.78;100097.41;4903808;29;20464;-76
2023/09/19 04:51:29;;;;;;;6.82;1.73;;;16.90;99.90;;;15.89;97.95;100099.34;4885603;29;20032;-76
2023/09/19 04:53:55;;;;;;;6.78;1.88;;;16.80;99.90;;;15.87;98.16;100101.28;4900654;29;20029;-76
2023/09/19 04:56:21;;;;;;;4.93;1.67;;;16.90;99.90;;;15.85;98.10;100103.19;4903214;29;20032;-76
2023/09/19 04:58:47;;;;;;;4.10;2.08;;;16.80;99.90;;;15.86;98.23;100115.53;4902517;29;20028;-76
2023/09/19 05:01:15;;;;;;;4.10;1.73;;;16.90;99.90;;;15.90;98.41;100112.50;4900948;29;20032;-76
2023/09/19 05:03:40;;;;;;;5.25;1.52;;;16.90;99.90;;;15.93;98.56;100111.41;4917040;29;20047;-76
2023/09/19 05:06:06;;;;;;;4.88;1.77;;;16.90;99.90;;;15.98;98.53;100117.19;4905702;29;20036;-76
2023/09/19 05:08:32;;;;;;;4.60;1.73;;;16.90;99.90;;;16.02;98.15;100126.59;4903222;29;20115;-76
2023/09/19 05:10:58;;;;;;;7.25;1.73;;;17.00;99.90;;;16.03;97.58;100128.31;4901445;29;20583;-76
2023/09/19 05:13:24;;;;;;;9.15;2.05;;;17.00;99.90;;;16.01;97.42;100135.56;4900119;29;20020;-76
2023/09/19 05:15:50;;;;;;;7.65;1.90;;;17.00;99.90;;;15.98;97.20;100130.47;4902381;29;20040;-75
2023/09/19 05:18:15;;;;;;;4.82;1.73;;;16.90;99.90;;;15.96;97.37;100117.34;4901692;29;20040;-76
2023/09/19 05:20:41;;;;;;;7.05;2.05;;;16.90;99.90;;;15.96;97.21;100125.31;4933155;29;20058;-76
2023/09/19 05:23:08;;;;;;;6.05;2.10;;;16.90;99.90;;;15.96;97.14;100124.44;4901823;29;20047;-76
2023/09/19 05:25:37;;;;;;;8.27;2.30;;;16.90;99.90;;;16.00;96.99;100128.53;4901288;29;20443;-77
2023/09/19 05:28:03;;;;;;;5.05;1.80;;;16.90;99.90;;;16.03;96.40;100125.66;4901656;29;20038;-76
2023/09/19 05:30:29;;;;;;;6.80;2.00;;;16.90;99.90;;;16.07;95.98;100127.13;4900913;29;20024;-76
2023/09/19 05:32:56;;;;;;;6.00;2.10;;;17.00;99.90;;;16.10;95.05;100134.81;4901374;29;20092;-76
2023/09/19 05:35:22;;;;;;;5.65;2.35;;;17.00;99.90;;;16.14;94.81;100136.28;4884204;29;20162;-75
2023/09/19 05:37:52;;;;;;;7.00;1.75;;;17.00;99.90;;;16.13;94.74;100142.56;4915457;29;20033;-75
2023/09/19 05:40:18;;;;;;;8.15;2.10;;;17.00;99.90;;;16.15;94.49;100145.91;4899466;29;20525;-75
2023/09/19 05:42:44;;;;;;;5.25;2.10;;;17.00;99.90;;;16.24;94.18;100146.16;4900431;29;20048;-75
2023/09/19 05:45:13;;;;;;;7.32;2.28;;;17.10;99.90;;;16.57;92.59;100153.25;4900409;29;20097;-75
2023/09/19 05:47:45;;;;;;;14.23;2.35;;;17.20;99.90;;;16.91;90.82;100153.19;4901233;29;20502;-75
2023/09/19 05:50:11;;;;;;;11.02;2.35;;;17.30;99.90;;;16.88;90.18;100159.59;4900850;29;20036;-75
2023/09/19 05:52:38;;;;;;;7.68;2.20;;;17.30;99.90;;;16.98;89.25;100167.69;4900095;29;20040;-76
2023/09/19 05:55:07;;;;;;;8.23;2.28;;;17.40;99.90;;;17.04;88.58;100161.84;4914267;29;20653;-76
2023/09/19 05:57:34;;;;;;;6.40;2.08;;;17.50;99.90;;;17.00;88.20;100166.56;4914234;29;20035;-76
2023/09/19 06:00:00;;;;;;;12.40;1.88;;;17.50;99.90;;;17.01;88.28;100162.09;4901682;29;20037;-75
2023/09/19 06:02:29;;;;;;;9.10;2.13;;;17.70;99.90;;;17.87;85.57;100180.69;4899711;29;20040;-76
2023/09/19 06:04:56;;;;;;;4.72;1.98;;;17.90;99.90;;;17.85;83.83;100187.94;4900600;29;20048;-75
2023/09/19 06:07:26;;;;;;;6.88;2.17;;;18.00;99.90;;;18.29;82.60;100191.22;4907180;29;20043;-76
2023/09/19 06:09:53;;;;;;;7.80;2.22;;;18.20;99.90;;;18.16;81.36;100194.13;4900091;29;20059;-76
2023/09/19 06:12:19;;;;;;;4.78;1.85;;;18.20;99.90;;;17.81;82.66;100192.66;4905196;29;20451;-75
2023/09/19 06:14:45;;;;;;;10.98;2.13;;;18.30;99.90;;;18.65;80.84;100203.97;4902292;29;20021;-76
2023/09/19 06:17:11;;;;;;;5.40;2.28;;;18.50;99.90;;;20.15;75.85;100231.28;4923419;29;20036;-75
2023/09/19 06:19:36;;;;;;;4.38;2.00;;;19.30;99.90;;;23.33;65.66;100254.66;4904714;29;20513;-76
2023/09/19 06:22:03;;;;;;;8.48;2.50;;;20.00;99.90;;;22.20;65.68;100253.97;4889407;29;20032;-76
2023/09/19 06:24:29;;;;;;;8.98;2.05;;;20.50;99.90;;;22.25;66.04;100255.22;4905093;29;20036;-75
2023/09/19 06:26:55;;;;;;;5.05;2.08;;;20.60;99.90;;;21.38;67.84;100246.16;4900578;29;20040;-76
2023/09/19 06:29:23;;;;;;;10.77;2.33;;;20.70;99.90;;;21.83;66.99;100255.06;4902521;29;20020;-75
2023/09/19 06:31:48;;;;;;;5.07;1.70;;;20.80;99.90;;;21.64;66.65;100262.31;4904496;29;20042;-75
2023/09/19 06:34:15;;;;;;;8.18;1.92;;;20.70;99.90;;;21.35;67.56;100251.78;4935813;29;20124;-77
2023/09/19 06:36:41;;;;;;;5.90;1.77;;;20.80;99.90;;;21.09;67.22;100255.22;4904296;29;20028;-75
2023/09/19 06:39:10;;;;;;;6.47;2.05;;;20.70;99.90;;;20.10;70.11;100248.75;4902861;29;20036;-75
2023/09/19 06:41:39;;;;;;;7.75;2.08;;;20.40;99.90;;;19.38;72.48;100245.56;4904516;29;20029;-75
2023/09/19 06:44:05;;;;;;;8.55;2.13;;;20.00;99.90;;;18.83;74.41;100248.69;4902962;29;20024;-75
2023/09/19 06:46:34;;;;;;;5.97;1.92;;;19.70;99.90;;;18.47;75.74;100253.63;4904226;29;20406;-75
2023/09/19 06:49:03;;;;;;;6.45;2.00;;;19.30;99.90;;;18.14;77.11;100252.91;4905414;29;20028;-75
2023/09/19 06:51:29;;;;;;;9.40;2.20;;;19.10;99.90;;;18.20;77.58;100252.34;4904040;29;20044;-75
2023/09/19 06:53:56;;;;;;;6.72;1.90;;;19.00;99.90;;;18.38;77.15;100254.38;4903799;29;20032;-75
2023/09/19 06:56:24;;;;;;;8.25;2.20;;;19.10;99.90;;;18.99;75.04;100270.38;4902806;29;20084;-75
2023/09/19 06:58:50;;;;;;;6.55;1.80;;;19.20;99.90;;;19.09;74.69;100277.53;4904419;29;20028;-76
2023/09/19 07:01:15;;;;;;;9.95;2.13;;;19.40;99.90;;;19.16;73.69;100271.53;4919064;29;20060;-76
2023/09/19 07:03:41;;;;;;;8.10;2.08;;;19.50;99.90;;;19.20;74.03;100280.09;4902739;29;20680;-75
2023/09/19 07:06:08;;;;;;;6.32;1.90;;;19.60;99.90;;;20.25;71.47;100287.38;4903593;29;20039;-75
2023/09/19 07:08:34;;;;;;;10.05;1.95;;;20.00;99.90;;;20.66;69.88;100286.16;4904242;29;20044;-75
2023/09/19 07:11:01;;;;;;;8.45;2.30;;;20.50;99.90;;;22.22;66.13;100314.53;4901935;29;20036;-75
2023/09/19 07:13:26;;;;;;;6.78;2.47;;;21.30;99.90;;;23.49;61.48;100329.03;4903137;29;20047;-78
2023/09/19 07:15:52;;;;;;;10.35;1.98;;;22.20;99.90;;;23.45;60.66;100328.53;4903793;29;20029;-75
2023/09/19 07:18:19;;;;;;;13.20;2.03;;;22.80;99.90;;;24.41;57.94;100334.31;4901862;29;20028;-75
2023/09/19 07:20:49;;;;;;;5.65;1.80;;;23.40;99.90;;;23.72;58.10;100322.03;4933260;28;20073;-78
2023/09/19 07:23:23;;;;;;;6.20;2.13;;;23.70;99.90;;;24.53;56.46;100351.78;4903769;29;20126;-78
2023/09/19 07:25:49;;;;;;;14.43;2.03;;;23.90;99.90;;;23.97;56.42;100343.56;4903240;29;20115;-75
2023/09/19 07:28:16;;;;;;;6.35;1.55;;;23.90;99.90;;;23.94;56.73;100355.50;4885350;29;20044;-75
2023/09/19 07:30:41;;;;;;;10.88;2.35;;;24.10;99.90;;;24.68;55.19;100360.81;4902600;29;20578;-77
2023/09/19 07:33:11;;;;;;;8.65;2.42;;;24.40;99.90;;;24.34;55.24;100377.16;4900744;29;20037;-78
2023/09/19 07:35:39;;;;;;;10.45;2.10;;;24.70;99.90;;;24.97;53.53;100395.25;4919078;29;20028;-77
2023/09/19 07:38:05;;;;;;;8.95;1.98;;;25.00;99.90;;;24.89;53.24;100400.66;4887652;29;20028;-80
2023/09/19 07:40:31;;;;;;;8.88;2.05;;;25.00;99.90;;;24.34;53.12;100394.19;4887335;29;20037;-77
2023/09/19 07:43:01;;;;;;;15.80;2.10;;;24.70;99.90;;;23.51;53.42;100386.97;4905045;29;20422;-77
2023/09/19 07:45:31;;;;;;;6.25;2.00;;;24.20;99.90;;;23.39;54.07;100392.81;4902477;29;20087;-77
2023/09/19 07:47:57;;;;;;;7.88;2.05;;;23.80;99.90;;;22.97;53.58;100397.16;4918538;29;20388;-77
2023/09/19 07:50:23;;;;;;;6.32;2.00;;;23.50;99.90;;;22.68;54.06;100400.19;4902027;29;20042;-77
2023/09/19 07:52:53;;;;;;;8.80;1.92;;;23.40;99.90;;;23.19;51.61;100425.31;4901602;29;20032;-75
2023/09/19 07:55:23;;;;;;;7.43;2.00;;;23.70;99.90;;;23.72;50.64;100436.78;4931139;29;20051;-74
2023/09/19 07:57:49;;;;;;;10.13;2.00;;;24.10;99.10;;;23.65;49.65;100458.09;4899895;29;20032;-75
2023/09/19 08:00:15;;;;;;;9.13;1.90;;;24.30;98.70;;;23.63;49.42;100465.47;4904364;29;20044;-76
2023/09/19 08:02:42;;;;;;;14.57;1.92;;;24.40;97.90;;;23.78;48.63;100473.78;4903184;29;20071;-73
2023/09/19 08:05:11;;;;;;;10.68;2.10;;;24.50;97.30;;;23.63;48.47;100480.72;4900557;29;20039;-73
2023/09/19 08:07:41;;;;;;;7.95;1.83;;;24.60;97.80;;;24.01;47.84;100494.66;4900923;29;20047;-73
2023/09/19 08:10:12;;;;;;;10.40;2.00;;;24.80;97.10;;;24.36;47.45;100510.53;4903644;29;20095;-74
2023/09/19 08:12:46;;;;;;;19.90;2.38;;;25.10;97.10;;;24.75;46.82;100512.59;4930524;29;20021;-73
2023/09/19 08:15:21;;;;;;;8.25;2.25;;;25.60;95.60;;;25.27;45.33;100521.28;4902743;29;20028;-74
2023/09/19 08:17:48;;;;;;;6.43;2.10;;;26.10;94.30;;;25.69;43.89;100552.50;4904381;29;20040;-74
2023/09/19 08:20:19;;;;;;;9.15;2.05;;;26.70;93.50;;;26.17;42.77;100553.31;4902083;29;20495;-74
2023/09/19 08:22:55;;;;;;;16.08;2.50;;;27.20;92.80;;;26.79;41.32;100565.91;4903654;29;20123;-77
2023/09/19 08:25:23;;;;;;;9.85;2.00;;;27.50;91.20;;;26.82;41.16;100589.84;4902349;29;20579;-76
2023/09/19 08:27:52;;;;;;;7.88;2.03;;;27.80;91.20;;;27.05;40.98;100606.03;4891587;29;20043;-77
2023/09/19 08:30:23;;;;;;;11.35;1.98;;;27.90;90.90;;;26.89;40.64;100611.56;4884302;29;20052;-74
2023/09/19 08:33:00;;;;;;;11.40;2.13;;;27.90;90.80;;;27.09;40.66;100611.94;4901070;29;20036;-74
2023/09/19 08:35:29;;;;;;;10.43;2.33;;;28.00;89.80;;;27.16;39.80;100629.94;4899197;29;20384;-78
2023/09/19 08:37:57;;;;;;;11.15;2.53;;;28.10;89.60;;;26.91;39.59;100620.34;4900744;29;20040;-77
2023/09/19 08:40:28;;;;;;;8.68;2.20;;;28.00;89.80;;;26.96;39.51;100634.16;4901974;29;20048;-77
2023/09/19 08:42:57;;;;;;;11.63;2.00;;;28.00;90.40;;;27.15;40.28;100638.25;4902459;29;20096;-75
2023/09/19 08:45:27;;;;;;;8.55;2.13;;;28.00;88.90;;;27.12;39.00;100639.41;4916352;29;20079;-74
2023/09/19 08:48:13;;;;;;;7.00;1.80;;;28.10;90.10;;;27.22;39.63;100649.19;4901373;29;20056;-76
2023/09/19 08:51:07;;;;;;;10.48;2.03;;;28.10;90.00;;;27.09;39.24;100658.72;4903134;29;20134;-74
2023/09/19 08:53:59;;;;;;;10.05;2.45;;;27.90;89.00;;;26.66;39.38;100644.00;4903019;29;21292;-74
2023/09/19 08:56:29;;;;;;;7.47;2.28;;;27.50;90.10;;;26.29;40.28;100638.25;4900222;29;20426;-76
2023/09/19 08:59:07;;;;;;;10.50;2.08;;;27.20;89.10;;;25.89;40.71;100647.34;4900469;29;20056;-77
2023/09/19 09:01:34;;;;;;;6.57;2.00;;;26.70;90.60;;;25.48;41.60;100626.69;4901522;29;20036;-77
2023/09/19 09:04:02;;;;;;;7.45;2.05;;;26.20;90.50;;;25.05;42.02;100628.72;4900431;29;20080;-77
2023/09/19 09:06:32;;;;;;;7.32;1.80;;;25.70;90.80;;;24.64;42.43;100619.75;4895136;29;20039;-77
2023/09/19 09:08:58;;;;;;;9.10;1.77;;;25.30;92.20;;;24.38;43.49;100606.38;4918307;29;20036;-77
2023/09/19 09:11:32;;;;;;;8.18;1.85;;;25.00;92.60;;;24.35;44.29;100604.88;4900917;29;20533;-77
2023/09/19 09:14:01;;;;;;;7.13;2.00;;;24.70;92.70;;;24.04;44.45;100599.22;4899270;29;20043;-76
2023/09/19 09:16:32;;;;;;;11.32;1.88;;;24.50;93.20;;;23.65;45.06;100595.16;4900635;29;20052;-77
2023/09/19 09:18:58;;;;;;;9.55;2.20;;;24.20;93.70;;;23.38;45.77;100581.91;4902375;29;20044;-77
2023/09/19 09:21:28;;;;;;;15.65;2.08;;;23.90;93.00;;;22.88;45.96;100572.59;4897840;29;20058;-77
2023/09/19 09:23:56;;;;;;;8.13;1.90;;;23.70;93.30;;;22.59;46.08;100559.41;4901720;29;20052;-74
2023/09/19 09:26:49;;;;;;;12.45;1.95;;;23.40;94.30;;;22.40;46.71;100557.75;4899164;29;20048;-74
2023/09/19 09:29:15;;;;;;;6.95;1.75;;;23.10;94.30;;;22.27;47.26;100547.41;4901014;29;20037;-74
2023/09/19 09:31:42;;;;;;;8.32;1.98;;;23.00;94.80;;;22.27;47.61;100548.22;4900705;29;20032;-72
2023/09/19 09:34:09;;;;;;;15.75;1.77;;;23.10;96.00;;;22.47;48.46;100540.03;4885285;29;20043;-72
2023/09/19 09:36:41;;;;;;;11.48;1.95;;;23.20;96.20;;;22.76;48.15;100538.94;4901059;29;20021;-72
2023/09/19 09:39:24;;;;;;;6.70;1.73;;;23.40;94.70;;;22.73;46.92;100546.31;4885843;29;20043;-72
2023/09/19 09:41:53;;;;;;;10.90;1.70;;;23.40;94.10;;;22.61;46.62;100558.25;4927928;29;20085;-72
2023/09/19 09:44:22;;;;;;;9.63;2.00;;;23.30;93.70;;;22.38;46.78;100559.75;4902656;29;20038;-71
2023/09/19 09:49:54;;;;;;;7.45;1.80;;;22.90;94.90;;;22.13;47.70;100556.75;4897205;29;20554;-73
2023/09/19 09:52:31;;;;;;;11.90;2.03;;;22.80;94.40;;;22.02;47.31;100554.28;4905163;29;20049;-73
2023/09/19 09:55:08;;;;;;;6.80;2.00;;;22.70;94.50;;;21.83;47.44;100550.69;4931211;29;20032;-73
2023/09/19 09:57:35;;;;;;;14.60;2.22;;;22.60;94.60;;;21.70;47.80;100552.88;4902906;29;20040;-73
2023/09/19 10:02:46;;;;;;;10.15;1.70;;;22.40;95.40;;;21.74;48.43;100534.69;4902326;29;20039;-73
2023/09/19 10:08:00;;;;;;;14.55;2.35;;;22.70;95.80;;;22.10;47.76;100539.13;4902448;29;20135;-73
2023/09/19 10:13:28;;;;;;;10.05;1.80;;;22.70;95.40;;;22.06;47.71;100534.22;4905993;29;20550;-72
2023/09/19 10:15:55;;;;;;;7.22;1.85;;;22.80;95.10;;;22.11;47.51;100542.66;4905299;29;20036;-73
2023/09/19 10:18:36;;;;;;;12.05;1.83;;;22.80;94.70;;;22.16;47.48;100529.66;4933347;29;20515;-73
2023/09/19 10:21:12;;;;;;;7.00;1.95;;;22.80;95.60;;;22.39;47.89;100537.28;4902809;29;20515;-73
2023/09/19 10:23:43;;;;;;;5.60;1.80;;;23.00;95.50;;;22.44;47.52;100537.66;4934032;29;20724;-73
2023/09/19 10:26:19;;;;;;;12.65;2.15;;;22.90;94.60;;;22.22;47.09;100545.16;4904948;29;20536;-73
2023/09/19 10:28:55;;;;;;;8.10;1.83;;;22.80;94.70;;;21.94;47.38;100540.78;4914816;29;20052;-73
2023/09/19 10:31:28;;;;;;;11.55;2.22;;;22.70;95.30;;;21.89;48.20;100531.34;4888753;29;20410;-73